< Typhoon 198803 1988 Season Typhoon 198805 >
Typhoon 198804 (THAD)
General InformationTrack Information on Google MapsDetailed Wind InformationList of All Images || Disaster Info.ResourceGoogle EarthGE AnimationAtom FeedGeoJSON
Detalied Best Track (Time Zone = UTC)
Year Month Day Hour Lat. Long. Pressure (hPa) Wind (kt) Class Image Chart
1988 6 17 18 5.0 141.0 1008 0 2 Image Chart
1988 6 18 00 5.0 140.0 1008 0 2 Image Chart
1988 6 18 06 5.5 139.5 1008 0 2 Image Chart
1988 6 18 12 6.0 138.5 1008 0 2 Image Chart
1988 6 18 18 6.5 138.0 1008 0 2 Image Chart
1988 6 19 00 7.0 137.5 1008 0 2 Image Chart
1988 6 19 06 7.5 136.5 1006 0 2 Image Chart
1988 6 19 12 8.0 135.5 1004 0 2 Image Chart
1988 6 19 18 8.4 134.5 1002 0 2 Image Chart
1988 6 20 00 8.8 133.5 1000 0 2 Image Chart
1988 6 20 06 9.4 132.6 998 35 3 Image Chart
1988 6 20 12 10.3 131.8 996 45 3 Image Chart
1988 6 20 18 11.4 131.1 992 45 3 Image Chart
1988 6 21 00 12.6 130.2 990 45 3 Image Chart
1988 6 21 06 13.8 129.0 985 50 4 Image Chart
1988 6 21 12 14.6 127.5 985 50 4 Image Chart
1988 6 21 18 15.1 126.5 980 55 4 Image Chart
1988 6 22 00 15.5 125.5 975 60 4 Image Chart
1988 6 22 06 16.2 125.0 970 65 5 Image Chart
1988 6 22 12 16.9 124.6 970 70 5 Image Chart
1988 6 22 18 17.8 124.5 970 70 5 Image Chart
1988 6 23 00 18.8 124.6 970 70 5 Image Chart
1988 6 23 06 19.9 124.9 970 70 5 Image Chart
1988 6 23 12 21.2 125.5 970 70 5 Image Chart
1988 6 23 18 22.6 126.2 975 65 5 Image Chart
1988 6 24 00 24.0 127.2 980 60 4 Image Chart
1988 6 24 06 25.4 128.4 985 55 4 Image Chart
1988 6 24 12 26.8 130.1 990 45 3 Image Chart
1988 6 24 18 27.9 131.9 994 40 3 Image Chart
1988 6 25 00 29.0 134.0 998 0 2 Image Chart
1988 6 25 06 30.0 136.5 1000 0 2 Image Chart
1988 6 25 12 31.0 138.0 1002 0 2 Image Chart
Japan Meteorological Agency Best Track Data | Correction Date : 1992-10-21
< Typhoon 198803 1988 Season Typhoon 198805 >

Help